sensor_id;sensor_type;location;lat;lon;timestamp;P1;durP1;ratioP1;P2;durP2;ratioP2
42632;SDS011;28261;53.304;-6.284;2022-09-09T00:01:35;28.00;;;9.98;;
42632;SDS011;28261;53.304;-6.284;2022-09-09T00:03:46;25.20;;;9.05;;
42632;SDS011;28261;53.304;-6.284;2022-09-09T00:05:59;21.08;;;8.38;;
42632;SDS011;28261;53.304;-6.284;2022-09-09T00:08:11;20.35;;;8.90;;
42632;SDS011;28261;53.304;-6.284;2022-09-09T00:10:19;22.52;;;8.13;;
42632;SDS011;28261;53.304;-6.284;2022-09-09T00:12:33;23.35;;;8.70;;
42632;SDS011;28261;53.304;-6.284;2022-09-09T00:14:43;25.20;;;9.10;;
42632;SDS011;28261;53.304;-6.284;2022-09-09T00:19:03;19.63;;;8.15;;
42632;SDS011;28261;53.304;-6.284;2022-09-09T00:21:12;20.90;;;8.82;;
42632;SDS011;28261;53.304;-6.284;2022-09-09T00:23:20;26.00;;;9.40;;
42632;SDS011;28261;53.304;-6.284;2022-09-09T00:25:29;24.10;;;9.10;;
42632;SDS011;28261;53.304;-6.284;2022-09-09T00:27:40;20.05;;;8.88;;
42632;SDS011;28261;53.304;-6.284;2022-09-09T00:29:51;27.80;;;9.48;;
42632;SDS011;28261;53.304;-6.284;2022-09-09T00:31:59;22.55;;;8.93;;
42632;SDS011;28261;53.304;-6.284;2022-09-09T00:34:20;18.70;;;9.18;;
42632;SDS011;28261;53.304;-6.284;2022-09-09T00:36:27;27.85;;;10.13;;
42632;SDS011;28261;53.304;-6.284;2022-09-09T00:38:33;26.00;;;10.15;;
42632;SDS011;28261;53.304;-6.284;2022-09-09T00:40:41;24.35;;;9.50;;
42632;SDS011;28261;53.304;-6.284;2022-09-09T00:42:54;26.43;;;9.93;;
42632;SDS011;28261;53.304;-6.284;2022-09-09T00:45:15;21.52;;;10.25;;
42632;SDS011;28261;53.304;-6.284;2022-09-09T00:47:43;22.60;;;11.02;;
42632;SDS011;28261;53.304;-6.284;2022-09-09T00:49:52;26.15;;;11.65;;
42632;SDS011;28261;53.304;-6.284;2022-09-09T00:52:08;20.63;;;10.43;;
42632;SDS011;28261;53.304;-6.284;2022-09-09T00:54:31;32.03;;;11.60;;
42632;SDS011;28261;53.304;-6.284;2022-09-09T00:56:42;29.13;;;12.02;;
42632;SDS011;28261;53.304;-6.284;2022-09-09T00:58:54;20.20;;;9.98;;
42632;SDS011;28261;53.304;-6.284;2022-09-09T01:01:10;23.80;;;9.13;;
42632;SDS011;28261;53.304;-6.284;2022-09-09T01:03:28;19.08;;;7.82;;
42632;SDS011;28261;53.304;-6.284;2022-09-09T01:05:39;20.55;;;8.40;;
42632;SDS011;28261;53.304;-6.284;2022-09-09T01:07:48;23.58;;;7.97;;
42632;SDS011;28261;53.304;-6.284;2022-09-09T01:09:59;23.52;;;8.75;;
42632;SDS011;28261;53.304;-6.284;2022-09-09T01:12:08;18.50;;;8.07;;
42632;SDS011;28261;53.304;-6.284;2022-09-09T01:14:24;18.52;;;8.43;;
42632;SDS011;28261;53.304;-6.284;2022-09-09T01:16:36;17.05;;;8.93;;
42632;SDS011;28261;53.304;-6.284;2022-09-09T01:18:43;20.98;;;8.75;;
42632;SDS011;28261;53.304;-6.284;2022-09-09T01:20:53;18.23;;;8.82;;
42632;SDS011;28261;53.304;-6.284;2022-09-09T01:28:27;19.58;;;7.82;;
42632;SDS011;28261;53.304;-6.284;2022-09-09T01:30:38;18.65;;;8.45;;
42632;SDS011;28261;53.304;-6.284;2022-09-09T01:32:49;21.98;;;9.20;;
42632;SDS011;28261;53.304;-6.284;2022-09-09T01:34:54;27.60;;;9.25;;
42632;SDS011;28261;53.304;-6.284;2022-09-09T01:36:59;17.20;;;8.65;;
42632;SDS011;28261;53.304;-6.284;2022-09-09T01:39:06;18.55;;;8.75;;
42632;SDS011;28261;53.304;-6.284;2022-09-09T01:41:10;18.08;;;9.15;;
42632;SDS011;28261;53.304;-6.284;2022-09-09T01:43:22;20.02;;;8.60;;
42632;SDS011;28261;53.304;-6.284;2022-09-09T01:45:28;20.17;;;8.00;;
42632;SDS011;28261;53.304;-6.284;2022-09-09T01:47:33;23.67;;;8.75;;
42632;SDS011;28261;53.304;-6.284;2022-09-09T01:49:45;19.98;;;8.32;;
42632;SDS011;28261;53.304;-6.284;2022-09-09T01:51:56;17.77;;;8.10;;
42632;SDS011;28261;53.304;-6.284;2022-09-09T01:54:07;14.90;;;7.90;;
42632;SDS011;28261;53.304;-6.284;2022-09-09T01:56:13;22.63;;;8.43;;
42632;SDS011;28261;53.304;-6.284;2022-09-09T01:58:33;12.85;;;7.45;;
42632;SDS011;28261;53.304;-6.284;2022-09-09T02:00:48;19.13;;;7.47;;
42632;SDS011;28261;53.304;-6.284;2022-09-09T02:03:00;17.00;;;7.93;;
42632;SDS011;28261;53.304;-6.284;2022-09-09T02:05:22;14.63;;;7.63;;
42632;SDS011;28261;53.304;-6.284;2022-09-09T02:07:37;20.95;;;8.32;;
42632;SDS011;28261;53.304;-6.284;2022-09-09T02:09:57;23.17;;;8.13;;
42632;SDS011;28261;53.304;-6.284;2022-09-09T02:12:06;17.98;;;8.13;;
42632;SDS011;28261;53.304;-6.284;2022-09-09T02:14:23;16.00;;;7.57;;
42632;SDS011;28261;53.304;-6.284;2022-09-09T02:16:32;15.82;;;8.00;;
42632;SDS011;28261;53.304;-6.284;2022-09-09T02:18:42;22.67;;;9.10;;
42632;SDS011;28261;53.304;-6.284;2022-09-09T02:20:52;20.40;;;8.15;;
42632;SDS011;28261;53.304;-6.284;2022-09-09T02:22:57;17.38;;;7.80;;
42632;SDS011;28261;53.304;-6.284;2022-09-09T02:25:02;14.73;;;8.48;;
42632;SDS011;28261;53.304;-6.284;2022-09-09T02:27:08;16.85;;;8.07;;
42632;SDS011;28261;53.304;-6.284;2022-09-09T02:29:14;22.38;;;9.10;;
42632;SDS011;28261;53.304;-6.284;2022-09-09T02:31:24;19.70;;;8.70;;
42632;SDS011;28261;53.304;-6.284;2022-09-09T02:33:35;20.88;;;8.32;;
42632;SDS011;28261;53.304;-6.284;2022-09-09T02:35:44;16.85;;;7.97;;
42632;SDS011;28261;53.304;-6.284;2022-09-09T02:37:55;19.83;;;8.40;;
42632;SDS011;28261;53.304;-6.284;2022-09-09T02:40:02;14.50;;;8.18;;
42632;SDS011;28261;53.304;-6.284;2022-09-09T02:42:08;19.38;;;7.93;;
42632;SDS011;28261;53.304;-6.284;2022-09-09T02:44:13;17.88;;;8.27;;
42632;SDS011;28261;53.304;-6.284;2022-09-09T02:46:27;20.10;;;9.25;;
42632;SDS011;28261;53.304;-6.284;2022-09-09T02:48:45;14.02;;;7.88;;
42632;SDS011;28261;53.304;-6.284;2022-09-09T02:50:59;20.65;;;8.45;;
42632;SDS011;28261;53.304;-6.284;2022-09-09T02:53:13;13.48;;;8.10;;
42632;SDS011;28261;53.304;-6.284;2022-09-09T02:55:23;16.98;;;8.65;;
42632;SDS011;28261;53.304;-6.284;2022-09-09T02:57:34;17.33;;;8.30;;
42632;SDS011;28261;53.304;-6.284;2022-09-09T02:59:39;19.10;;;9.02;;
42632;SDS011;28261;53.304;-6.284;2022-09-09T03:01:45;20.58;;;8.23;;
42632;SDS011;28261;53.304;-6.284;2022-09-09T03:03:48;18.70;;;9.45;;
42632;SDS011;28261;53.304;-6.284;2022-09-09T03:05:52;25.80;;;9.77;;
42632;SDS011;28261;53.304;-6.284;2022-09-09T03:07:56;22.23;;;9.40;;
42632;SDS011;28261;53.304;-6.284;2022-09-09T03:10:00;21.83;;;9.30;;
42632;SDS011;28261;53.304;-6.284;2022-09-09T03:12:04;17.17;;;8.90;;
42632;SDS011;28261;53.304;-6.284;2022-09-09T03:14:09;18.85;;;9.77;;
42632;SDS011;28261;53.304;-6.284;2022-09-09T03:16:14;18.58;;;9.23;;
42632;SDS011;28261;53.304;-6.284;2022-09-09T03:18:22;17.17;;;9.15;;
42632;SDS011;28261;53.304;-6.284;2022-09-09T03:20:28;21.23;;;8.65;;
42632;SDS011;28261;53.304;-6.284;2022-09-09T03:22:33;25.15;;;8.93;;
42632;SDS011;28261;53.304;-6.284;2022-09-09T03:24:37;18.50;;;8.50;;
42632;SDS011;28261;53.304;-6.284;2022-09-09T03:26:41;16.52;;;8.23;;
42632;SDS011;28261;53.304;-6.284;2022-09-09T03:28:49;16.70;;;8.07;;
42632;SDS011;28261;53.304;-6.284;2022-09-09T03:30:58;18.30;;;7.80;;
42632;SDS011;28261;53.304;-6.284;2022-09-09T03:33:07;21.08;;;7.30;;
42632;SDS011;28261;53.304;-6.284;2022-09-09T03:35:13;15.23;;;7.00;;
42632;SDS011;28261;53.304;-6.284;2022-09-09T03:37:18;18.17;;;7.15;;
42632;SDS011;28261;53.304;-6.284;2022-09-09T03:39:23;18.80;;;7.45;;
42632;SDS011;28261;53.304;-6.284;2022-09-09T03:41:27;20.27;;;7.57;;
42632;SDS011;28261;53.304;-6.284;2022-09-09T03:43:32;18.33;;;7.03;;
42632;SDS011;28261;53.304;-6.284;2022-09-09T03:45:36;16.25;;;7.15;;
42632;SDS011;28261;53.304;-6.284;2022-09-09T03:47:40;12.38;;;6.63;;
42632;SDS011;28261;53.304;-6.284;2022-09-09T03:49:44;17.20;;;7.45;;
42632;SDS011;28261;53.304;-6.284;2022-09-09T03:51:49;13.82;;;7.13;;
42632;SDS011;28261;53.304;-6.284;2022-09-09T03:53:53;12.25;;;6.90;;
42632;SDS011;28261;53.304;-6.284;2022-09-09T03:56:00;13.98;;;6.38;;
42632;SDS011;28261;53.304;-6.284;2022-09-09T03:58:05;21.75;;;6.47;;
42632;SDS011;28261;53.304;-6.284;2022-09-09T04:00:09;18.55;;;7.32;;
42632;SDS011;28261;53.304;-6.284;2022-09-09T04:02:25;20.40;;;7.68;;
42632;SDS011;28261;53.304;-6.284;2022-09-09T04:04:29;17.77;;;6.80;;
42632;SDS011;28261;53.304;-6.284;2022-09-09T04:06:32;22.48;;;8.18;;
42632;SDS011;28261;53.304;-6.284;2022-09-09T04:08:38;18.00;;;7.22;;
42632;SDS011;28261;53.304;-6.284;2022-09-09T04:10:44;25.30;;;7.57;;
42632;SDS011;28261;53.304;-6.284;2022-09-09T04:12:50;18.77;;;7.50;;
42632;SDS011;28261;53.304;-6.284;2022-09-09T04:14:55;17.98;;;7.57;;
42632;SDS011;28261;53.304;-6.284;2022-09-09T04:16:59;20.83;;;7.40;;
42632;SDS011;28261;53.304;-6.284;2022-09-09T04:19:05;13.73;;;6.88;;
42632;SDS011;28261;53.304;-6.284;2022-09-09T04:21:10;26.13;;;9.63;;
42632;SDS011;28261;53.304;-6.284;2022-09-09T04:23:15;13.15;;;7.18;;
42632;SDS011;28261;53.304;-6.284;2022-09-09T04:25:21;17.45;;;6.70;;
42632;SDS011;28261;53.304;-6.284;2022-09-09T04:27:25;20.80;;;7.55;;
42632;SDS011;28261;53.304;-6.284;2022-09-09T04:29:29;19.98;;;7.70;;
42632;SDS011;28261;53.304;-6.284;2022-09-09T04:31:33;19.40;;;7.90;;
42632;SDS011;28261;53.304;-6.284;2022-09-09T04:33:37;20.65;;;8.40;;
42632;SDS011;28261;53.304;-6.284;2022-09-09T04:35:43;19.55;;;7.43;;
42632;SDS011;28261;53.304;-6.284;2022-09-09T04:37:49;15.93;;;7.03;;
42632;SDS011;28261;53.304;-6.284;2022-09-09T04:39:53;18.23;;;7.55;;
42632;SDS011;28261;53.304;-6.284;2022-09-09T04:41:58;19.88;;;7.57;;
42632;SDS011;28261;53.304;-6.284;2022-09-09T04:44:02;13.38;;;7.20;;
42632;SDS011;28261;53.304;-6.284;2022-09-09T04:46:07;20.45;;;8.00;;
42632;SDS011;28261;53.304;-6.284;2022-09-09T04:48:10;19.80;;;7.78;;
42632;SDS011;28261;53.304;-6.284;2022-09-09T04:50:14;17.67;;;8.25;;
42632;SDS011;28261;53.304;-6.284;2022-09-09T04:52:20;21.45;;;7.80;;
42632;SDS011;28261;53.304;-6.284;2022-09-09T04:54:24;17.73;;;7.35;;
42632;SDS011;28261;53.304;-6.284;2022-09-09T04:56:28;17.42;;;7.18;;
42632;SDS011;28261;53.304;-6.284;2022-09-09T04:58:36;16.35;;;6.03;;
42632;SDS011;28261;53.304;-6.284;2022-09-09T05:00:41;16.65;;;5.93;;
42632;SDS011;28261;53.304;-6.284;2022-09-09T05:02:45;9.48;;;5.10;;
42632;SDS011;28261;53.304;-6.284;2022-09-09T05:04:49;11.48;;;5.03;;
42632;SDS011;28261;53.304;-6.284;2022-09-09T05:06:53;13.75;;;5.30;;
42632;SDS011;28261;53.304;-6.284;2022-09-09T05:08:57;13.57;;;5.70;;
42632;SDS011;28261;53.304;-6.284;2022-09-09T05:11:03;12.45;;;5.35;;
42632;SDS011;28261;53.304;-6.284;2022-09-09T05:13:07;14.07;;;5.85;;
42632;SDS011;28261;53.304;-6.284;2022-09-09T05:15:12;13.27;;;5.43;;
42632;SDS011;28261;53.304;-6.284;2022-09-09T05:17:16;10.23;;;5.28;;
42632;SDS011;28261;53.304;-6.284;2022-09-09T05:19:19;11.60;;;5.22;;
42632;SDS011;28261;53.304;-6.284;2022-09-09T05:21:25;12.13;;;5.07;;
42632;SDS011;28261;53.304;-6.284;2022-09-09T05:23:29;12.10;;;5.03;;
42632;SDS011;28261;53.304;-6.284;2022-09-09T05:25:33;9.73;;;4.90;;
42632;SDS011;28261;53.304;-6.284;2022-09-09T05:27:37;11.00;;;5.25;;
42632;SDS011;28261;53.304;-6.284;2022-09-09T05:29:41;8.82;;;4.70;;
42632;SDS011;28261;53.304;-6.284;2022-09-09T05:31:48;9.02;;;4.97;;
42632;SDS011;28261;53.304;-6.284;2022-09-09T05:33:54;10.05;;;5.80;;
42632;SDS011;28261;53.304;-6.284;2022-09-09T05:35:58;13.13;;;6.35;;
42632;SDS011;28261;53.304;-6.284;2022-09-09T05:38:04;14.63;;;6.88;;
42632;SDS011;28261;53.304;-6.284;2022-09-09T05:40:08;23.55;;;6.78;;
42632;SDS011;28261;53.304;-6.284;2022-09-09T05:42:13;11.45;;;6.22;;
42632;SDS011;28261;53.304;-6.284;2022-09-09T05:44:18;15.80;;;6.70;;
42632;SDS011;28261;53.304;-6.284;2022-09-09T05:46:22;12.98;;;6.78;;
42632;SDS011;28261;53.304;-6.284;2022-09-09T05:48:29;18.70;;;6.93;;
42632;SDS011;28261;53.304;-6.284;2022-09-09T05:50:34;20.58;;;8.60;;
42632;SDS011;28261;53.304;-6.284;2022-09-09T05:52:37;22.58;;;7.97;;
42632;SDS011;28261;53.304;-6.284;2022-09-09T05:54:41;16.92;;;8.10;;
42632;SDS011;28261;53.304;-6.284;2022-09-09T05:56:45;15.43;;;8.05;;
42632;SDS011;28261;53.304;-6.284;2022-09-09T05:58:53;17.80;;;7.20;;
42632;SDS011;28261;53.304;-6.284;2022-09-09T06:01:01;15.27;;;7.82;;
42632;SDS011;28261;53.304;-6.284;2022-09-09T06:03:06;16.15;;;7.15;;
42632;SDS011;28261;53.304;-6.284;2022-09-09T06:05:14;15.43;;;7.85;;
42632;SDS011;28261;53.304;-6.284;2022-09-09T06:07:18;20.73;;;7.35;;
42632;SDS011;28261;53.304;-6.284;2022-09-09T06:09:21;17.63;;;7.68;;
42632;SDS011;28261;53.304;-6.284;2022-09-09T06:11:26;12.43;;;6.95;;
42632;SDS011;28261;53.304;-6.284;2022-09-09T06:13:33;17.08;;;8.15;;
42632;SDS011;28261;53.304;-6.284;2022-09-09T06:15:39;16.40;;;6.13;;
42632;SDS011;28261;53.304;-6.284;2022-09-09T06:17:54;14.38;;;6.20;;
42632;SDS011;28261;53.304;-6.284;2022-09-09T06:19:58;14.85;;;6.10;;
42632;SDS011;28261;53.304;-6.284;2022-09-09T06:22:06;16.58;;;6.25;;
42632;SDS011;28261;53.304;-6.284;2022-09-09T06:24:11;11.68;;;5.90;;
42632;SDS011;28261;53.304;-6.284;2022-09-09T06:26:19;12.35;;;5.93;;
42632;SDS011;28261;53.304;-6.284;2022-09-09T06:28:24;15.60;;;6.25;;
42632;SDS011;28261;53.304;-6.284;2022-09-09T06:30:28;11.55;;;6.25;;
42632;SDS011;28261;53.304;-6.284;2022-09-09T06:32:32;12.43;;;6.53;;
42632;SDS011;28261;53.304;-6.284;2022-09-09T06:34:38;15.23;;;6.28;;
42632;SDS011;28261;53.304;-6.284;2022-09-09T06:36:41;11.15;;;6.18;;
42632;SDS011;28261;53.304;-6.284;2022-09-09T06:38:47;13.85;;;5.72;;
42632;SDS011;28261;53.304;-6.284;2022-09-09T06:40:51;14.23;;;6.72;;
42632;SDS011;28261;53.304;-6.284;2022-09-09T06:42:59;9.68;;;5.65;;
42632;SDS011;28261;53.304;-6.284;2022-09-09T06:45:09;10.30;;;5.53;;
42632;SDS011;28261;53.304;-6.284;2022-09-09T06:47:22;14.52;;;5.65;;
42632;SDS011;28261;53.304;-6.284;2022-09-09T06:49:27;14.20;;;5.45;;
42632;SDS011;28261;53.304;-6.284;2022-09-09T06:51:31;7.97;;;5.18;;
42632;SDS011;28261;53.304;-6.284;2022-09-09T06:53:38;8.18;;;5.07;;
42632;SDS011;28261;53.304;-6.284;2022-09-09T06:55:46;9.05;;;5.47;;
42632;SDS011;28261;53.304;-6.284;2022-09-09T06:57:51;9.25;;;4.78;;
42632;SDS011;28261;53.304;-6.284;2022-09-09T06:59:57;9.05;;;4.78;;
42632;SDS011;28261;53.304;-6.284;2022-09-09T07:02:00;13.95;;;5.20;;
42632;SDS011;28261;53.304;-6.284;2022-09-09T07:04:04;7.38;;;4.90;;
42632;SDS011;28261;53.304;-6.284;2022-09-09T07:06:12;9.25;;;5.15;;
42632;SDS011;28261;53.304;-6.284;2022-09-09T07:08:19;7.78;;;5.07;;
42632;SDS011;28261;53.304;-6.284;2022-09-09T07:10:22;12.13;;;4.80;;
42632;SDS011;28261;53.304;-6.284;2022-09-09T07:12:28;9.65;;;5.10;;
42632;SDS011;28261;53.304;-6.284;2022-09-09T07:14:33;12.90;;;5.22;;
42632;SDS011;28261;53.304;-6.284;2022-09-09T07:16:41;15.52;;;5.43;;
42632;SDS011;28261;53.304;-6.284;2022-09-09T07:18:47;10.18;;;5.53;;
42632;SDS011;28261;53.304;-6.284;2022-09-09T07:20:52;12.38;;;5.00;;
42632;SDS011;28261;53.304;-6.284;2022-09-09T07:22:58;15.15;;;5.30;;
42632;SDS011;28261;53.304;-6.284;2022-09-09T07:25:02;9.93;;;4.90;;
42632;SDS011;28261;53.304;-6.284;2022-09-09T07:27:07;6.70;;;4.50;;
42632;SDS011;28261;53.304;-6.284;2022-09-09T07:29:13;11.88;;;5.18;;
42632;SDS011;28261;53.304;-6.284;2022-09-09T07:31:22;8.00;;;5.07;;
42632;SDS011;28261;53.304;-6.284;2022-09-09T07:33:28;9.15;;;4.65;;
42632;SDS011;28261;53.304;-6.284;2022-09-09T07:35:33;6.50;;;4.93;;
42632;SDS011;28261;53.304;-6.284;2022-09-09T07:37:38;10.57;;;4.60;;
42632;SDS011;28261;53.304;-6.284;2022-09-09T07:39:43;6.90;;;4.45;;
42632;SDS011;28261;53.304;-6.284;2022-09-09T07:41:47;7.30;;;4.63;;
42632;SDS011;28261;53.304;-6.284;2022-09-09T07:43:55;9.02;;;4.97;;
42632;SDS011;28261;53.304;-6.284;2022-09-09T07:46:01;7.85;;;4.05;;
42632;SDS011;28261;53.304;-6.284;2022-09-09T07:48:05;11.65;;;4.63;;
42632;SDS011;28261;53.304;-6.284;2022-09-09T07:50:08;7.47;;;4.57;;
42632;SDS011;28261;53.304;-6.284;2022-09-09T07:52:13;8.30;;;4.75;;
42632;SDS011;28261;53.304;-6.284;2022-09-09T07:54:23;8.05;;;5.70;;
42632;SDS011;28261;53.304;-6.284;2022-09-09T07:56:29;11.35;;;5.03;;
42632;SDS011;28261;53.304;-6.284;2022-09-09T07:58:35;9.45;;;4.95;;
42632;SDS011;28261;53.304;-6.284;2022-09-09T08:00:40;11.55;;;4.95;;
42632;SDS011;28261;53.304;-6.284;2022-09-09T08:02:47;7.38;;;4.97;;
42632;SDS011;28261;53.304;-6.284;2022-09-09T08:04:52;15.77;;;4.85;;
42632;SDS011;28261;53.304;-6.284;2022-09-09T08:06:56;11.77;;;5.30;;
42632;SDS011;28261;53.304;-6.284;2022-09-09T08:09:03;10.85;;;4.95;;
42632;SDS011;28261;53.304;-6.284;2022-09-09T08:11:09;7.20;;;4.22;;
42632;SDS011;28261;53.304;-6.284;2022-09-09T08:13:17;8.25;;;4.22;;
42632;SDS011;28261;53.304;-6.284;2022-09-09T08:15:22;7.78;;;4.22;;
42632;SDS011;28261;53.304;-6.284;2022-09-09T08:17:26;7.20;;;4.55;;
42632;SDS011;28261;53.304;-6.284;2022-09-09T08:19:32;6.55;;;4.10;;
42632;SDS011;28261;53.304;-6.284;2022-09-09T08:21:42;10.90;;;4.00;;
42632;SDS011;28261;53.304;-6.284;2022-09-09T08:23:47;8.52;;;3.72;;
42632;SDS011;28261;53.304;-6.284;2022-09-09T08:26:03;5.70;;;3.40;;
42632;SDS011;28261;53.304;-6.284;2022-09-09T08:28:08;9.48;;;3.67;;
42632;SDS011;28261;53.304;-6.284;2022-09-09T08:30:13;7.32;;;3.45;;
42632;SDS011;28261;53.304;-6.284;2022-09-09T08:32:17;4.78;;;3.35;;
42632;SDS011;28261;53.304;-6.284;2022-09-09T08:34:21;8.23;;;3.50;;
42632;SDS011;28261;53.304;-6.284;2022-09-09T08:36:28;8.55;;;3.28;;
42632;SDS011;28261;53.304;-6.284;2022-09-09T08:38:35;6.45;;;3.00;;
42632;SDS011;28261;53.304;-6.284;2022-09-09T08:40:40;7.82;;;3.25;;
42632;SDS011;28261;53.304;-6.284;2022-09-09T08:42:52;5.95;;;3.17;;
42632;SDS011;28261;53.304;-6.284;2022-09-09T08:47:32;5.32;;;2.53;;
42632;SDS011;28261;53.304;-6.284;2022-09-09T08:49:53;5.65;;;2.17;;
42632;SDS011;28261;53.304;-6.284;2022-09-09T08:52:09;3.65;;;2.40;;
42632;SDS011;28261;53.304;-6.284;2022-09-09T08:54:20;5.97;;;2.42;;
42632;SDS011;28261;53.304;-6.284;2022-09-09T08:56:46;8.05;;;2.58;;
42632;SDS011;28261;53.304;-6.284;2022-09-09T08:58:51;6.38;;;2.03;;
42632;SDS011;28261;53.304;-6.284;2022-09-09T09:01:18;6.32;;;2.10;;
42632;SDS011;28261;53.304;-6.284;2022-09-09T09:03:41;5.22;;;2.00;;
42632;SDS011;28261;53.304;-6.284;2022-09-09T09:05:54;10.38;;;2.50;;
42632;SDS011;28261;53.304;-6.284;2022-09-09T09:08:08;3.78;;;1.83;;
42632;SDS011;28261;53.304;-6.284;2022-09-09T09:10:25;5.47;;;2.20;;
42632;SDS011;28261;53.304;-6.284;2022-09-09T09:12:47;3.97;;;1.98;;
42632;SDS011;28261;53.304;-6.284;2022-09-09T09:14:53;2.88;;;2.30;;
42632;SDS011;28261;53.304;-6.284;2022-09-09T09:17:00;6.68;;;2.72;;
42632;SDS011;28261;53.304;-6.284;2022-09-09T09:19:07;12.05;;;2.83;;
42632;SDS011;28261;53.304;-6.284;2022-09-09T09:21:19;6.68;;;4.05;;
42632;SDS011;28261;53.304;-6.284;2022-09-09T09:23:32;7.43;;;3.42;;
42632;SDS011;28261;53.304;-6.284;2022-09-09T09:25:41;6.90;;;2.30;;
42632;SDS011;28261;53.304;-6.284;2022-09-09T09:27:49;5.93;;;2.38;;
42632;SDS011;28261;53.304;-6.284;2022-09-09T09:30:10;8.30;;;2.33;;
42632;SDS011;28261;53.304;-6.284;2022-09-09T09:32:30;4.30;;;2.20;;
42632;SDS011;28261;53.304;-6.284;2022-09-09T09:34:39;9.30;;;2.30;;
42632;SDS011;28261;53.304;-6.284;2022-09-09T09:36:45;5.75;;;3.63;;
42632;SDS011;28261;53.304;-6.284;2022-09-09T09:38:57;13.55;;;3.20;;
42632;SDS011;28261;53.304;-6.284;2022-09-09T09:41:30;7.90;;;2.35;;
42632;SDS011;28261;53.304;-6.284;2022-09-09T09:43:37;4.40;;;2.00;;
42632;SDS011;28261;53.304;-6.284;2022-09-09T09:45:49;6.28;;;2.00;;
42632;SDS011;28261;53.304;-6.284;2022-09-09T09:48:13;3.53;;;1.95;;
42632;SDS011;28261;53.304;-6.284;2022-09-09T09:50:19;6.25;;;1.80;;
42632;SDS011;28261;53.304;-6.284;2022-09-09T09:52:27;4.93;;;1.80;;
42632;SDS011;28261;53.304;-6.284;2022-09-09T09:54:39;7.20;;;2.25;;
42632;SDS011;28261;53.304;-6.284;2022-09-09T09:56:46;14.82;;;2.25;;
42632;SDS011;28261;53.304;-6.284;2022-09-09T09:58:52;3.28;;;2.30;;
42632;SDS011;28261;53.304;-6.284;2022-09-09T10:01:18;10.43;;;2.50;;
42632;SDS011;28261;53.304;-6.284;2022-09-09T10:03:28;9.40;;;2.95;;
42632;SDS011;28261;53.304;-6.284;2022-09-09T10:05:35;7.32;;;2.28;;
42632;SDS011;28261;53.304;-6.284;2022-09-09T10:07:44;10.10;;;2.22;;
42632;SDS011;28261;53.304;-6.284;2022-09-09T10:09:52;9.25;;;2.75;;
42632;SDS011;28261;53.304;-6.284;2022-09-09T10:12:00;6.80;;;2.42;;
42632;SDS011;28261;53.304;-6.284;2022-09-09T10:14:13;6.15;;;2.00;;
42632;SDS011;28261;53.304;-6.284;2022-09-09T10:16:30;4.57;;;2.00;;
42632;SDS011;28261;53.304;-6.284;2022-09-09T10:18:45;5.95;;;2.08;;
42632;SDS011;28261;53.304;-6.284;2022-09-09T10:20:59;6.35;;;2.30;;
42632;SDS011;28261;53.304;-6.284;2022-09-09T10:23:13;13.23;;;2.75;;
42632;SDS011;28261;53.304;-6.284;2022-09-09T10:25:40;12.80;;;2.60;;
42632;SDS011;28261;53.304;-6.284;2022-09-09T10:28:06;7.28;;;2.33;;
42632;SDS011;28261;53.304;-6.284;2022-09-09T10:30:21;3.85;;;2.08;;
42632;SDS011;28261;53.304;-6.284;2022-09-09T10:32:35;8.52;;;2.10;;
42632;SDS011;28261;53.304;-6.284;2022-09-09T10:34:47;6.65;;;2.40;;
42632;SDS011;28261;53.304;-6.284;2022-09-09T10:36:59;3.85;;;2.00;;
42632;SDS011;28261;53.304;-6.284;2022-09-09T10:39:12;5.53;;;2.25;;
42632;SDS011;28261;53.304;-6.284;2022-09-09T10:41:33;7.97;;;2.65;;
42632;SDS011;28261;53.304;-6.284;2022-09-09T10:43:55;5.28;;;2.10;;
42632;SDS011;28261;53.304;-6.284;2022-09-09T10:46:17;2.17;;;1.98;;
42632;SDS011;28261;53.304;-6.284;2022-09-09T10:50:46;4.53;;;2.35;;
42632;SDS011;28261;53.304;-6.284;2022-09-09T10:53:08;5.38;;;2.00;;
42632;SDS011;28261;53.304;-6.284;2022-09-09T10:55:18;5.57;;;2.17;;
42632;SDS011;28261;53.304;-6.284;2022-09-09T10:57:33;5.95;;;2.63;;
42632;SDS011;28261;53.304;-6.284;2022-09-09T10:59:43;6.10;;;2.45;;
42632;SDS011;28261;53.304;-6.284;2022-09-09T11:01:53;4.57;;;2.17;;
42632;SDS011;28261;53.304;-6.284;2022-09-09T11:04:01;9.07;;;2.25;;
42632;SDS011;28261;53.304;-6.284;2022-09-09T11:06:14;5.68;;;2.03;;
42632;SDS011;28261;53.304;-6.284;2022-09-09T11:08:21;8.13;;;2.10;;
42632;SDS011;28261;53.304;-6.284;2022-09-09T11:10:30;4.50;;;2.70;;
42632;SDS011;28261;53.304;-6.284;2022-09-09T11:14:51;5.75;;;2.13;;
42632;SDS011;28261;53.304;-6.284;2022-09-09T11:17:02;5.78;;;2.90;;
42632;SDS011;28261;53.304;-6.284;2022-09-09T11:19:15;4.20;;;2.17;;
42632;SDS011;28261;53.304;-6.284;2022-09-09T11:21:25;5.97;;;2.40;;
42632;SDS011;28261;53.304;-6.284;2022-09-09T11:23:33;8.82;;;2.28;;
42632;SDS011;28261;53.304;-6.284;2022-09-09T11:25:43;7.45;;;2.50;;
42632;SDS011;28261;53.304;-6.284;2022-09-09T11:28:01;5.63;;;2.65;;
42632;SDS011;28261;53.304;-6.284;2022-09-09T11:30:18;8.75;;;2.70;;
42632;SDS011;28261;53.304;-6.284;2022-09-09T11:32:56;6.00;;;2.25;;
42632;SDS011;28261;53.304;-6.284;2022-09-09T11:35:11;5.32;;;2.75;;
42632;SDS011;28261;53.304;-6.284;2022-09-09T11:37:36;5.53;;;2.20;;
42632;SDS011;28261;53.304;-6.284;2022-09-09T11:42:19;5.10;;;2.10;;
42632;SDS011;28261;53.304;-6.284;2022-09-09T11:44:28;5.13;;;2.03;;
42632;SDS011;28261;53.304;-6.284;2022-09-09T11:46:35;5.40;;;2.63;;
42632;SDS011;28261;53.304;-6.284;2022-09-09T11:48:41;8.00;;;3.08;;
42632;SDS011;28261;53.304;-6.284;2022-09-09T11:50:56;4.88;;;2.72;;
42632;SDS011;28261;53.304;-6.284;2022-09-09T11:53:03;19.90;;;2.90;;
42632;SDS011;28261;53.304;-6.284;2022-09-09T11:55:24;8.02;;;3.15;;
42632;SDS011;28261;53.304;-6.284;2022-09-09T11:57:31;4.80;;;2.90;;
42632;SDS011;28261;53.304;-6.284;2022-09-09T11:59:39;5.78;;;2.80;;
42632;SDS011;28261;53.304;-6.284;2022-09-09T12:01:55;6.93;;;2.88;;
42632;SDS011;28261;53.304;-6.284;2022-09-09T12:06:42;5.35;;;3.00;;
42632;SDS011;28261;53.304;-6.284;2022-09-09T12:08:48;4.93;;;3.38;;
42632;SDS011;28261;53.304;-6.284;2022-09-09T12:10:58;6.65;;;3.08;;
42632;SDS011;28261;53.304;-6.284;2022-09-09T12:13:09;3.67;;;3.20;;
42632;SDS011;28261;53.304;-6.284;2022-09-09T12:15:24;7.15;;;3.15;;
42632;SDS011;28261;53.304;-6.284;2022-09-09T12:17:31;4.25;;;3.20;;
42632;SDS011;28261;53.304;-6.284;2022-09-09T12:21:49;6.15;;;3.13;;
42632;SDS011;28261;53.304;-6.284;2022-09-09T12:23:59;4.28;;;2.67;;
42632;SDS011;28261;53.304;-6.284;2022-09-09T12:26:16;5.22;;;2.85;;
42632;SDS011;28261;53.304;-6.284;2022-09-09T12:28:44;4.50;;;2.53;;
42632;SDS011;28261;53.304;-6.284;2022-09-09T12:30:58;3.35;;;2.70;;
42632;SDS011;28261;53.304;-6.284;2022-09-09T12:33:11;3.80;;;2.55;;
42632;SDS011;28261;53.304;-6.284;2022-09-09T12:35:18;5.07;;;2.80;;
42632;SDS011;28261;53.304;-6.284;2022-09-09T12:37:26;11.13;;;2.78;;
42632;SDS011;28261;53.304;-6.284;2022-09-09T12:39:35;5.68;;;2.53;;
42632;SDS011;28261;53.304;-6.284;2022-09-09T12:41:50;3.83;;;2.28;;
42632;SDS011;28261;53.304;-6.284;2022-09-09T12:44:03;3.95;;;2.80;;
42632;SDS011;28261;53.304;-6.284;2022-09-09T12:46:14;5.78;;;2.50;;
42632;SDS011;28261;53.304;-6.284;2022-09-09T12:48:31;3.75;;;2.40;;
42632;SDS011;28261;53.304;-6.284;2022-09-09T12:50:38;6.30;;;2.35;;
42632;SDS011;28261;53.304;-6.284;2022-09-09T12:52:48;4.65;;;2.33;;
42632;SDS011;28261;53.304;-6.284;2022-09-09T12:54:55;4.20;;;2.17;;
42632;SDS011;28261;53.304;-6.284;2022-09-09T12:57:00;4.82;;;2.40;;
42632;SDS011;28261;53.304;-6.284;2022-09-09T12:59:05;5.32;;;2.60;;
42632;SDS011;28261;53.304;-6.284;2022-09-09T13:01:22;6.45;;;2.80;;